Alexis, North Carolina
Current Conditions -  °F | °C
As of 4:15 PM on Tuesday 21 Oct 2014 (Local Time) from KIPJ Reporting Station
Broken Clouds Broken Clouds  
Wind Chill: 71°   Ceiling: 7000
Heat Index: 71°   Visibility: 10mi
Dew Point: 42°   Wind: 5mph
Humidity: 34%   Direction: 310°NW
Pressure: 29.88"   Gusts: NA
Location:  35.4°N, 81.12°W
Report Text: KIPJ 212015Z AUTO 31004KT 10SM BKN070 22/05 A2988 RMK AO2 T02190053
Loading
Personal Weather Stations






























Interactive Weather Map
Tropical Storm Tracking
New forecast layout! Learn more

10-Day Weather Forecast

Advertisements
Track Severe Weather on mobile